Portada
METAR-TAF:

METAR-TAF

Aeroports :

Maceió, Alagoas, Brasil

latitud: 09-31S, longitud: 035-47W, altitud: 117 m

Observació

L'informe es va fer fa 38 minuts, a les 16:00 UTC
Vent 12 kt del Sud-Est
Temperatura 29°C
Humitat 58%
Pressió 1012 hPa
Visibilitat 10 km o més
Cel ennuvolat a una alçada de 3000 ft

METAR: SBMO 121600Z 14012KT 9999 BKN030 29/20 Q1012

Hora: 13:38 (16:38 UTC)

Pronòstic

L'informe es va fer fa 6 hores i 38 minuts, a les 10:00 UTC
Pronòstic vàlid del 12 a les 12 UTC al 13 a les 12 UTC
Vent 10 kt del Est
Visibilitat 10 km o més
Núvols disperses a una alçada de 3000 ft
Evolucionant progressivament
l' 12 a les 20 UTC al 12 a les 22 UTC
Vent 8 kt del Est/Nord-Est
Visibilitat 10 km o més
sense núvols per sota de 1500 mi sense presència de cumulonimbus.

TAF: SBMO 121000Z 1212/1312 10010KT 9999 SCT030 TX30/1215Z TN22/1307Z BECMG 1220/1222 07008KT CAVOK RMK PEH

Observacions i pronòstics meteorològics de més de 4000 aeroports (METAR i TAF).

Les estacions disponibles són els punts grocs i vermells al mapa.

Posi el ratolí al punt desitjat per veure el nom de l'estació.

Feu clic per veure les observacions i els pronòstics meteorològics.

Per canviar el mapa: feu clic els botons verds amb una creu de color negre per apropar; al botó verd amb un guió per allunyar la imatge; o en les fletxes verdes per a mapes adjacents.


METAR-TAF: